Time;durP1;ratioP1;P1;durP2;ratioP2;P2;SDS_P1;SDS_P2;PMS_P1;PMS_P2;Temp;Humidity;BMP_temperature;BMP_pressure;BME280_temperature;BME280_humidity;BME280_pressure;Samples;Min_cycle;Max_cycle;Signal;HPM_P1;HPM_P2
2024/02/21 00:01:21;;;;;;;5.20;2.60;;;6.80;48.60;;;;;;4974086;28;20301;-64
2024/02/21 00:03:47;;;;;;;4.73;2.80;;;6.70;48.70;;;;;;4974944;28;20215;-64
2024/02/21 00:06:14;;;;;;;2.90;2.47;;;6.80;49.00;;;;;;4975429;28;20209;-64
2024/02/21 00:08:40;;;;;;;5.30;2.53;;;6.80;48.80;;;;;;4974564;28;20212;-64
2024/02/21 00:11:07;;;;;;;4.20;2.53;;;6.80;48.90;;;;;;4974454;28;20282;-64
2024/02/21 00:13:33;;;;;;;7.13;2.90;;;6.80;48.90;;;;;;4974397;28;20238;-64
2024/02/21 00:16:00;;;;;;;5.00;2.43;;;6.80;49.10;;;;;;4974231;28;20733;-64
2024/02/21 00:18:26;;;;;;;4.47;2.57;;;6.90;48.80;;;;;;4974431;28;20227;-64
2024/02/21 00:20:53;;;;;;;3.67;2.53;;;6.70;49.20;;;;;;4974302;28;20223;-64
2024/02/21 00:23:19;;;;;;;3.50;2.40;;;6.70;49.30;;;;;;4978327;28;20263;-64
2024/02/21 00:25:46;;;;;;;4.47;2.70;;;6.70;49.50;;;;;;4974017;28;20281;-64
2024/02/21 00:28:12;;;;;;;4.80;2.80;;;6.70;49.50;;;;;;4974019;28;20270;-64
2024/02/21 00:30:39;;;;;;;4.90;2.87;;;6.70;49.60;;;;;;4972909;28;20628;-64
2024/02/21 00:33:06;;;;;;;4.37;2.73;;;6.70;49.80;;;;;;4974400;28;20631;-64
2024/02/21 00:35:32;;;;;;;4.33;3.03;;;6.70;49.70;;;;;;4974262;28;20235;-64
2024/02/21 00:37:59;;;;;;;3.63;2.53;;;6.70;49.60;;;;;;4974635;28;20216;-63
2024/02/21 00:40:26;;;;;;;2.73;2.53;;;6.60;49.70;;;;;;4977689;28;20215;-64
2024/02/21 00:42:52;;;;;;;6.00;2.73;;;6.60;49.90;;;;;;4974758;28;20258;-64
2024/02/21 00:45:19;;;;;;;4.50;2.60;;;6.60;49.80;;;;;;4973633;28;20254;-64
2024/02/21 00:47:45;;;;;;;3.10;2.50;;;6.60;49.90;;;;;;4974076;28;20219;-64
2024/02/21 00:50:12;;;;;;;3.17;2.60;;;6.70;49.90;;;;;;4973914;28;20282;-64
2024/02/21 00:52:38;;;;;;;5.47;3.23;;;6.70;49.80;;;;;;4973603;28;20239;-64
2024/02/21 00:55:05;;;;;;;3.73;2.70;;;6.50;50.20;;;;;;4973570;28;20220;-64
2024/02/21 00:57:31;;;;;;;3.37;2.47;;;6.70;49.90;;;;;;4974175;28;20211;-64
2024/02/21 00:59:58;;;;;;;4.40;3.20;;;6.60;50.00;;;;;;4973382;28;20212;-64
2024/02/21 01:02:24;;;;;;;4.63;2.70;;;6.60;49.90;;;;;;4973945;28;20300;-64
2024/02/21 01:04:51;;;;;;;3.47;2.80;;;6.60;49.90;;;;;;4973471;28;20219;-64
2024/02/21 01:07:17;;;;;;;4.43;3.03;;;6.60;49.80;;;;;;4974130;28;20212;-64
2024/02/21 01:09:44;;;;;;;3.67;2.40;;;6.50;50.10;;;;;;4973399;28;20273;-64
2024/02/21 01:12:11;;;;;;;3.60;2.23;;;6.60;50.00;;;;;;4973618;28;20239;-64
2024/02/21 01:14:37;;;;;;;4.60;2.90;;;6.60;50.00;;;;;;4976516;28;20223;-64
2024/02/21 01:17:06;;;;;;;5.00;2.90;;;6.50;50.10;;;;;;4973316;28;20297;-64
2024/02/21 01:19:32;;;;;;;3.03;2.60;;;6.60;50.00;;;;;;4973616;28;20215;-64
2024/02/21 01:21:59;;;;;;;4.23;2.70;;;6.60;50.20;;;;;;4965364;28;20235;-64
2024/02/21 01:24:25;;;;;;;4.17;3.27;;;6.60;50.00;;;;;;4973164;28;20649;-64
2024/02/21 01:26:52;;;;;;;3.70;3.40;;;6.60;50.30;;;;;;4973131;28;20216;-64
2024/02/21 01:29:18;;;;;;;3.83;2.70;;;6.50;50.50;;;;;;4972337;28;20679;-64
2024/02/21 01:31:45;;;;;;;4.63;2.60;;;6.50;50.20;;;;;;4976932;28;20235;-64
2024/02/21 01:34:12;;;;;;;8.10;3.23;;;6.60;50.30;;;;;;4973445;28;20219;-64
2024/02/21 01:36:38;;;;;;;2.73;2.50;;;6.60;50.40;;;;;;4971925;28;20247;-64
2024/02/21 01:39:05;;;;;;;5.13;2.70;;;6.50;50.60;;;;;;4973093;28;20794;-64
2024/02/21 01:41:31;;;;;;;5.77;2.47;;;6.60;50.20;;;;;;4973071;28;20240;-64
2024/02/21 01:43:58;;;;;;;2.97;2.67;;;6.60;50.20;;;;;;4973057;28;20214;-64
2024/02/21 01:46:27;;;;;;;2.60;2.10;;;6.70;50.10;;;;;;4971682;28;20741;-64
2024/02/21 01:48:54;;;;;;;4.90;2.50;;;6.50;50.60;;;;;;4976563;28;20208;-64
2024/02/21 01:51:20;;;;;;;3.53;2.60;;;6.60;50.30;;;;;;4972689;28;20239;-64
2024/02/21 01:53:47;;;;;;;3.57;2.77;;;6.50;50.30;;;;;;4972618;28;20215;-64
2024/02/21 01:56:13;;;;;;;3.67;2.57;;;6.60;50.50;;;;;;4972467;28;20235;-64
2024/02/21 01:58:40;;;;;;;2.83;2.23;;;6.70;50.20;;;;;;4972874;28;20215;-64
2024/02/21 02:01:06;;;;;;;3.53;2.63;;;6.70;50.00;;;;;;4971948;28;20385;-64
2024/02/21 02:03:33;;;;;;;2.63;2.43;;;6.60;50.00;;;;;;4972696;28;20215;-64
2024/02/21 02:05:59;;;;;;;4.30;2.60;;;6.60;50.50;;;;;;4976393;28;20243;-64
2024/02/21 02:08:26;;;;;;;2.77;2.30;;;6.70;50.00;;;;;;4972615;28;20215;-64
2024/02/21 02:10:52;;;;;;;3.83;2.47;;;6.70;50.30;;;;;;4972329;28;20223;-64
2024/02/21 02:13:19;;;;;;;3.57;2.50;;;6.60;49.90;;;;;;4972846;28;20215;-64
2024/02/21 02:15:45;;;;;;;2.47;2.27;;;6.70;50.40;;;;;;4971701;28;20644;-64
2024/02/21 02:18:12;;;;;;;3.87;2.50;;;6.70;50.00;;;;;;4971952;28;20752;-64
2024/02/21 02:20:38;;;;;;;2.73;2.20;;;6.70;50.20;;;;;;4972280;28;20271;-64
2024/02/21 02:23:05;;;;;;;3.83;2.40;;;6.60;50.10;;;;;;4976306;28;20784;-64
2024/02/21 02:25:32;;;;;;;2.53;2.33;;;6.60;50.30;;;;;;4972210;28;20216;-64
2024/02/21 02:27:58;;;;;;;2.70;2.10;;;6.60;50.00;;;;;;4964682;28;20602;-64
2024/02/21 02:30:25;;;;;;;2.73;2.50;;;6.60;50.10;;;;;;4971058;28;20241;-64
2024/02/21 02:32:51;;;;;;;4.20;2.73;;;6.70;50.00;;;;;;4971782;28;20281;-64
2024/02/21 02:35:18;;;;;;;3.30;2.47;;;6.70;49.90;;;;;;4972116;28;20211;-64
2024/02/21 02:37:44;;;;;;;2.40;2.20;;;6.70;49.90;;;;;;4971850;28;20293;-64
2024/02/21 02:40:12;;;;;;;2.23;2.03;;;6.80;50.00;;;;;;4976275;28;20301;-64
2024/02/21 02:42:39;;;;;;;2.90;2.27;;;6.70;49.80;;;;;;4972345;28;20318;-64
2024/02/21 02:45:05;;;;;;;2.40;2.20;;;6.70;49.60;;;;;;4971104;28;20730;-64
2024/02/21 02:47:32;;;;;;;4.70;2.00;;;6.70;49.70;;;;;;4971845;28;20242;-64
2024/02/21 02:49:58;;;;;;;4.13;2.40;;;6.60;50.20;;;;;;4972225;28;20218;-64
2024/02/21 02:52:25;;;;;;;2.83;2.27;;;6.70;50.30;;;;;;4972038;28;20681;-64
2024/02/21 02:54:52;;;;;;;2.23;2.10;;;6.70;50.20;;;;;;4972165;28;20211;-64
2024/02/21 02:57:19;;;;;;;3.57;2.13;;;6.70;50.20;;;;;;4976053;28;20246;-64
2024/02/21 02:59:45;;;;;;;3.63;2.30;;;6.60;50.10;;;;;;4971114;28;20667;-64
2024/02/21 03:02:12;;;;;;;2.27;2.00;;;6.60;50.30;;;;;;4971704;28;20290;-64
2024/02/21 03:04:38;;;;;;;2.33;2.13;;;6.60;50.40;;;;;;4971095;28;20208;-64
2024/02/21 03:07:05;;;;;;;4.10;2.37;;;6.60;49.90;;;;;;4972211;28;20212;-64
2024/02/21 03:09:31;;;;;;;2.00;1.90;;;6.60;50.20;;;;;;4971652;28;20745;-64
2024/02/21 03:12:02;;;;;;;2.93;2.17;;;6.50;50.00;;;;;;4972196;28;20238;-64
2024/02/21 03:14:29;;;;;;;4.93;2.33;;;6.40;50.20;;;;;;4967957;28;20315;-64
2024/02/21 03:16:55;;;;;;;2.30;2.10;;;6.60;50.20;;;;;;4971721;28;20231;-64
2024/02/21 03:19:22;;;;;;;3.43;2.47;;;6.70;50.00;;;;;;4974763;28;20273;-64
2024/02/21 03:21:49;;;;;;;2.17;1.83;;;6.70;49.60;;;;;;4974471;28;20681;-64
2024/02/21 03:24:16;;;;;;;2.73;2.10;;;6.50;50.10;;;;;;4974140;28;20270;-64
2024/02/21 03:26:42;;;;;;;2.00;1.90;;;6.60;49.90;;;;;;4974870;28;20285;-64
2024/02/21 03:29:09;;;;;;;2.97;2.30;;;6.50;50.20;;;;;;4975978;28;20215;-64
2024/02/21 03:31:35;;;;;;;2.40;2.20;;;6.50;49.80;;;;;;4977456;28;20414;-64
2024/02/21 03:34:02;;;;;;;1.80;1.70;;;6.50;49.80;;;;;;4975603;28;20221;-64
2024/02/21 03:36:29;;;;;;;3.27;2.00;;;6.60;49.50;;;;;;4975123;28;20706;-64
2024/02/21 03:38:55;;;;;;;2.27;2.17;;;6.60;49.60;;;;;;4975394;28;20220;-64
2024/02/21 03:41:22;;;;;;;3.10;1.80;;;6.50;49.90;;;;;;4975017;28;20235;-64
2024/02/21 03:43:48;;;;;;;2.20;2.00;;;6.50;49.70;;;;;;4974927;28;20250;-64
2024/02/21 03:46:15;;;;;;;1.90;1.80;;;6.60;49.70;;;;;;4976975;28;20594;-65
2024/02/21 03:48:43;;;;;;;3.43;2.13;;;6.60;49.70;;;;;;4977376;28;20285;-64
2024/02/21 03:51:09;;;;;;;2.13;2.00;;;6.70;49.50;;;;;;4975322;28;20287;-64
2024/02/21 03:53:36;;;;;;;2.03;1.80;;;6.70;49.30;;;;;;4974833;28;20215;-64
2024/02/21 03:56:03;;;;;;;2.13;1.93;;;6.60;49.50;;;;;;4974879;28;20222;-64
2024/02/21 03:58:30;;;;;;;2.23;2.03;;;6.60;49.40;;;;;;4975123;28;20215;-64
2024/02/21 04:00:56;;;;;;;2.50;1.90;;;6.60;49.70;;;;;;4973951;28;20322;-64
2024/02/21 04:03:23;;;;;;;2.37;2.00;;;6.60;49.70;;;;;;4974819;28;20211;-64
2024/02/21 04:05:50;;;;;;;2.30;2.07;;;6.50;49.80;;;;;;4974891;28;20271;-65
2024/02/21 04:08:17;;;;;;;2.33;2.00;;;6.50;49.90;;;;;;4975111;28;20211;-64
2024/02/21 04:10:43;;;;;;;2.87;2.30;;;6.50;50.00;;;;;;4974955;28;20223;-64
2024/02/21 04:13:10;;;;;;;2.80;2.07;;;6.50;49.90;;;;;;4975609;28;20231;-65
2024/02/21 04:15:36;;;;;;;2.67;2.20;;;6.50;50.30;;;;;;4974477;28;20206;-64
2024/02/21 04:18:03;;;;;;;2.90;2.17;;;6.40;50.60;;;;;;4975182;28;20664;-64
2024/02/21 04:20:30;;;;;;;2.43;2.23;;;6.50;50.10;;;;;;4977977;28;20221;-64
2024/02/21 04:22:56;;;;;;;2.23;2.00;;;6.50;49.70;;;;;;4974580;28;20330;-65
2024/02/21 04:25:23;;;;;;;2.67;2.47;;;6.50;49.80;;;;;;4974167;28;20270;-64
2024/02/21 04:27:49;;;;;;;2.20;2.03;;;6.50;49.60;;;;;;4974635;28;20220;-65
2024/02/21 04:30:16;;;;;;;2.73;2.20;;;6.40;49.90;;;;;;4972758;28;20208;-64
2024/02/21 04:32:43;;;;;;;2.77;2.07;;;6.40;49.90;;;;;;4974169;28;20237;-65
2024/02/21 04:35:09;;;;;;;2.80;2.10;;;6.40;49.90;;;;;;4974173;28;20741;-64
2024/02/21 04:37:36;;;;;;;2.13;2.00;;;6.40;50.00;;;;;;4974647;28;20290;-64
2024/02/21 04:40:02;;;;;;;2.43;1.90;;;6.30;50.10;;;;;;4974229;28;20670;-64
2024/02/21 04:42:29;;;;;;;2.97;2.00;;;6.30;50.00;;;;;;4974226;28;20239;-65
2024/02/21 04:44:55;;;;;;;4.03;2.03;;;6.30;50.10;;;;;;4973444;28;20210;-64
2024/02/21 04:47:23;;;;;;;1.97;1.60;;;6.30;50.50;;;;;;4974154;28;20211;-64
2024/02/21 04:49:50;;;;;;;1.87;1.77;;;6.40;49.80;;;;;;4973597;28;20210;-65
2024/02/21 04:52:16;;;;;;;2.40;1.97;;;6.30;50.00;;;;;;4973995;28;20239;-65
2024/02/21 04:54:43;;;;;;;2.10;2.00;;;6.20;50.00;;;;;;4978272;28;20238;-65
2024/02/21 04:57:10;;;;;;;2.13;1.93;;;6.30;50.00;;;;;;4973997;28;20237;-65
2024/02/21 04:59:36;;;;;;;1.93;1.83;;;6.20;50.00;;;;;;4973426;28;20262;-64
2024/02/21 05:02:03;;;;;;;3.10;1.90;;;6.30;50.10;;;;;;4973654;28;20285;-65
2024/02/21 05:04:29;;;;;;;2.50;2.30;;;6.30;50.10;;;;;;4973696;28;20275;-64
2024/02/21 05:06:56;;;;;;;2.00;1.90;;;6.20;50.00;;;;;;4973598;28;20210;-65
2024/02/21 05:09:23;;;;;;;2.30;2.13;;;6.20;50.20;;;;;;4973299;28;20263;-64
2024/02/21 05:11:49;;;;;;;2.37;2.17;;;6.10;50.00;;;;;;4977012;28;20233;-64
2024/02/21 05:14:16;;;;;;;2.17;1.90;;;6.20;49.90;;;;;;4973609;28;20803;-65
2024/02/21 05:16:42;;;;;;;2.37;2.00;;;6.20;49.80;;;;;;4973055;28;20226;-65
2024/02/21 05:19:09;;;;;;;2.00;1.90;;;6.10;49.90;;;;;;4973449;28;20650;-64
2024/02/21 05:21:35;;;;;;;2.13;1.90;;;6.20;49.70;;;;;;4972557;28;20234;-65
2024/02/21 05:24:02;;;;;;;2.20;2.00;;;6.10;49.80;;;;;;4973524;28;20215;-65
2024/02/21 05:26:28;;;;;;;2.60;2.33;;;6.10;49.90;;;;;;4973170;28;20221;-64
2024/02/21 05:28:55;;;;;;;2.00;1.90;;;6.20;49.70;;;;;;4977283;28;20266;-65
2024/02/21 05:31:21;;;;;;;3.63;2.40;;;6.10;49.70;;;;;;4972743;28;20226;-65
2024/02/21 05:33:48;;;;;;;1.90;1.80;;;6.10;49.40;;;;;;4973058;28;20250;-64
2024/02/21 05:36:14;;;;;;;2.47;1.90;;;6.10;49.60;;;;;;4972616;28;20241;-64
2024/02/21 05:38:41;;;;;;;3.77;1.90;;;6.20;49.70;;;;;;4973064;28;20272;-65
2024/02/21 05:41:07;;;;;;;3.10;1.97;;;6.20;49.60;;;;;;4973048;28;20640;-64
2024/02/21 05:43:34;;;;;;;2.20;2.00;;;6.10;49.50;;;;;;4972865;28;20211;-64
2024/02/21 05:46:01;;;;;;;3.80;2.70;;;6.20;49.50;;;;;;4976580;28;20211;-64
2024/02/21 05:48:27;;;;;;;2.00;1.90;;;6.10;49.60;;;;;;4972623;28;20205;-64
2024/02/21 05:50:54;;;;;;;2.00;1.90;;;6.10;49.60;;;;;;4972273;28;20307;-64
2024/02/21 05:53:20;;;;;;;2.63;1.90;;;6.20;49.70;;;;;;4972929;28;20280;-64
2024/02/21 05:55:47;;;;;;;2.20;2.00;;;6.10;49.70;;;;;;4973261;28;20578;-64
2024/02/21 05:58:13;;;;;;;4.57;2.40;;;6.10;49.30;;;;;;4972932;28;20602;-65
2024/02/21 06:00:40;;;;;;;3.03;2.10;;;6.10;49.50;;;;;;4971940;28;20263;-64
2024/02/21 06:03:07;;;;;;;2.33;2.07;;;6.00;49.20;;;;;;4977634;28;20642;-64
2024/02/21 06:05:33;;;;;;;2.33;2.10;;;6.00;49.40;;;;;;4972327;28;20253;-64
2024/02/21 06:08:00;;;;;;;2.27;2.07;;;6.00;49.20;;;;;;4971502;28;20205;-64
2024/02/21 06:10:26;;;;;;;2.40;2.20;;;5.90;49.20;;;;;;4972849;28;20277;-63
2024/02/21 06:12:53;;;;;;;3.13;2.10;;;5.90;49.30;;;;;;4972526;28;21211;-64
2024/02/21 06:15:19;;;;;;;1.93;1.83;;;5.90;49.40;;;;;;4972055;28;20211;-63
2024/02/21 06:17:46;;;;;;;3.50;2.03;;;5.80;49.40;;;;;;4972443;28;20336;-64
2024/02/21 06:20:12;;;;;;;2.30;2.20;;;5.90;49.30;;;;;;4976402;28;20218;-63
2024/02/21 06:22:39;;;;;;;2.30;2.10;;;5.90;48.60;;;;;;4971092;28;20289;-64
2024/02/21 06:25:06;;;;;;;2.17;2.07;;;6.00;48.70;;;;;;4972618;28;20265;-63
2024/02/21 06:27:32;;;;;;;2.67;2.40;;;6.00;48.60;;;;;;4972604;28;20264;-63
2024/02/21 06:29:59;;;;;;;2.27;2.07;;;6.00;48.80;;;;;;4971372;28;20215;-63
2024/02/21 06:32:25;;;;;;;4.57;2.73;;;6.00;48.60;;;;;;4971876;28;20231;-63
2024/02/21 06:34:52;;;;;;;2.50;2.30;;;6.00;48.60;;;;;;4971723;28;20215;-63
2024/02/21 06:37:18;;;;;;;2.67;2.47;;;6.10;48.00;;;;;;4972519;28;20768;-63
2024/02/21 06:39:45;;;;;;;2.37;2.17;;;6.10;47.90;;;;;;4972744;28;20210;-63
2024/02/21 06:42:11;;;;;;;3.00;2.40;;;6.00;48.10;;;;;;4972295;28;20327;-63
2024/02/21 06:44:40;;;;;;;3.77;2.20;;;6.00;48.00;;;;;;4971377;28;20264;-64
2024/02/21 06:47:07;;;;;;;2.50;2.17;;;6.00;48.20;;;;;;4972068;28;20212;-64
2024/02/21 06:49:33;;;;;;;2.40;2.20;;;6.00;47.90;;;;;;4972223;28;20250;-64
2024/02/21 06:52:00;;;;;;;2.83;2.10;;;6.00;47.80;;;;;;4972657;28;20238;-63
2024/02/21 06:54:26;;;;;;;3.33;2.07;;;6.10;47.80;;;;;;4979961;28;20261;-63
2024/02/21 06:56:53;;;;;;;2.27;2.07;;;6.10;47.70;;;;;;4976087;28;20260;-64
2024/02/21 06:59:19;;;;;;;2.20;2.10;;;6.10;47.60;;;;;;4976186;28;20223;-64
2024/02/21 07:01:46;;;;;;;3.43;2.23;;;6.10;47.20;;;;;;4974130;28;20230;-64
2024/02/21 07:04:12;;;;;;;2.43;2.27;;;6.20;47.50;;;;;;4975606;28;20206;-64
2024/02/21 07:06:39;;;;;;;2.40;2.20;;;6.20;47.40;;;;;;4975774;28;20207;-64
2024/02/21 07:09:05;;;;;;;2.60;2.40;;;6.30;47.30;;;;;;4976272;28;20215;-64
2024/02/21 07:11:32;;;;;;;3.43;2.23;;;6.20;47.60;;;;;;4980109;28;20787;-63
2024/02/21 07:13:58;;;;;;;2.90;2.20;;;6.20;47.40;;;;;;4968831;28;20214;-65
2024/02/21 07:16:26;;;;;;;2.43;1.90;;;6.30;47.70;;;;;;4975074;28;20215;-64
2024/02/21 07:18:53;;;;;;;2.43;2.20;;;6.40;47.30;;;;;;4975573;28;20297;-64
2024/02/21 07:21:19;;;;;;;2.43;2.10;;;6.40;47.00;;;;;;4976019;28;20250;-64
2024/02/21 07:23:46;;;;;;;2.30;2.10;;;6.40;46.40;;;;;;4975378;28;20203;-64
2024/02/21 07:26:12;;;;;;;4.87;2.30;;;6.50;46.50;;;;;;4975948;28;20214;-64
2024/02/21 07:28:39;;;;;;;2.97;2.03;;;6.50;46.40;;;;;;4976048;28;20607;-64
2024/02/21 07:31:05;;;;;;;2.40;2.10;;;6.40;46.20;;;;;;4975322;28;20308;-64
2024/02/21 07:33:32;;;;;;;4.53;2.00;;;6.70;45.80;;;;;;4975610;28;20219;-64
2024/02/21 07:35:59;;;;;;;4.40;2.47;;;6.70;45.20;;;;;;4968044;28;20262;-64
2024/02/21 07:38:25;;;;;;;3.83;2.00;;;6.60;45.40;;;;;;4975478;28;20242;-64
2024/02/21 07:40:52;;;;;;;2.87;2.10;;;6.60;45.50;;;;;;4975170;28;20211;-64
2024/02/21 07:43:18;;;;;;;7.30;2.37;;;6.60;45.50;;;;;;4975226;28;20295;-64
2024/02/21 07:45:45;;;;;;;4.13;2.60;;;6.50;45.50;;;;;;4979642;28;20215;-65
2024/02/21 07:48:11;;;;;;;3.47;2.77;;;6.50;45.70;;;;;;4976310;28;20219;-64
2024/02/21 07:50:38;;;;;;;3.87;2.70;;;6.50;45.70;;;;;;4974711;28;20211;-64
2024/02/21 07:53:05;;;;;;;2.80;2.33;;;6.50;45.40;;;;;;4975572;28;20234;-64
2024/02/21 07:55:31;;;;;;;2.47;2.27;;;6.50;45.30;;;;;;4975836;28;20287;-64
2024/02/21 07:57:58;;;;;;;2.70;2.37;;;6.50;45.00;;;;;;4975704;28;20235;-64
2024/02/21 08:00:24;;;;;;;2.50;2.30;;;6.70;45.00;;;;;;4974103;28;20215;-64
2024/02/21 08:02:51;;;;;;;2.83;2.53;;;6.90;44.40;;;;;;4979457;28;20238;-64
2024/02/21 08:05:18;;;;;;;2.87;2.67;;;7.00;43.70;;;;;;4973964;28;20219;-64
2024/02/21 08:07:44;;;;;;;2.77;1.97;;;7.00;45.10;;;;;;4975061;28;20219;-64
2024/02/21 08:10:11;;;;;;;3.43;2.00;;;6.90;43.60;;;;;;4975021;28;20215;-64
2024/02/21 08:12:37;;;;;;;2.67;1.77;;;6.70;43.90;;;;;;4973986;28;20325;-64
2024/02/21 08:15:04;;;;;;;1.67;1.57;;;6.80;44.40;;;;;;4975172;28;20686;-64
2024/02/21 08:17:31;;;;;;;4.40;1.90;;;6.80;43.90;;;;;;4973420;28;20793;-64
2024/02/21 08:19:57;;;;;;;2.00;1.90;;;6.80;43.80;;;;;;4979060;28;20219;-64
2024/02/21 08:22:24;;;;;;;2.03;1.80;;;7.00;43.30;;;;;;4974592;28;20238;-64
2024/02/21 08:24:50;;;;;;;1.80;1.70;;;7.10;43.10;;;;;;4974721;28;20226;-64
2024/02/21 08:27:17;;;;;;;1.80;1.70;;;7.10;43.40;;;;;;4974289;28;20215;-64
2024/02/21 08:29:43;;;;;;;3.30;1.83;;;7.20;42.30;;;;;;4973388;28;20757;-63
2024/02/21 08:32:10;;;;;;;3.73;1.87;;;7.30;42.60;;;;;;4973602;28;20655;-63
2024/02/21 08:34:36;;;;;;;1.97;1.77;;;7.60;42.00;;;;;;4973785;28;20263;-63
2024/02/21 08:37:03;;;;;;;2.20;2.10;;;7.80;41.50;;;;;;4977544;28;20267;-64
2024/02/21 08:39:30;;;;;;;1.93;1.80;;;7.90;41.40;;;;;;4973100;28;20577;-64
2024/02/21 08:41:56;;;;;;;2.63;1.77;;;8.30;41.20;;;;;;4973599;28;20279;-63
2024/02/21 08:44:22;;;;;;;3.07;2.00;;;9.10;41.00;;;;;;4974006;28;20249;-63
2024/02/21 08:46:48;;;;;;;1.67;1.57;;;9.30;38.40;;;;;;4973371;28;20236;-64
2024/02/21 08:49:15;;;;;;;1.87;1.77;;;9.70;38.40;;;;;;4974342;28;20248;-63
2024/02/21 08:51:42;;;;;;;1.93;1.83;;;10.10;35.90;;;;;;4974167;28;20238;-64
2024/02/21 08:54:09;;;;;;;1.50;1.40;;;9.80;36.80;;;;;;4978406;28;20849;-64
2024/02/21 08:56:36;;;;;;;1.47;1.27;;;10.20;35.40;;;;;;4973560;28;20210;-64
2024/02/21 08:59:03;;;;;;;3.30;1.77;;;10.30;33.90;;;;;;4974622;28;20604;-64
2024/02/21 09:01:30;;;;;;;1.93;1.83;;;10.50;34.40;;;;;;4972778;28;20226;-64
2024/02/21 09:03:56;;;;;;;2.00;1.67;;;11.10;34.00;;;;;;4973206;28;20208;-64
2024/02/21 09:06:23;;;;;;;3.10;1.70;;;10.90;33.00;;;;;;4973733;28;20255;-64
2024/02/21 09:08:49;;;;;;;1.93;1.70;;;11.20;34.00;;;;;;4974375;28;20684;-64
2024/02/21 09:11:16;;;;;;;2.10;1.97;;;11.30;33.50;;;;;;4974226;28;20397;-65
2024/02/21 09:13:42;;;;;;;1.60;1.50;;;11.50;33.40;;;;;;4973767;28;20264;-64
2024/02/21 09:16:09;;;;;;;2.03;1.80;;;11.70;32.70;;;;;;4972242;28;20263;-64
2024/02/21 09:18:35;;;;;;;3.57;1.73;;;12.00;32.40;;;;;;4973502;28;20229;-66
2024/02/21 09:21:02;;;;;;;2.80;2.13;;;12.20;32.50;;;;;;4973138;28;20284;-64
2024/02/21 09:23:31;;;;;;;2.13;1.87;;;12.40;32.30;;;;;;4973201;28;20228;-65
2024/02/21 09:26:00;;;;;;;1.73;1.63;;;12.50;32.10;;;;;;4974331;28;20220;-65
2024/02/21 09:28:26;;;;;;;2.57;1.87;;;12.60;31.80;;;;;;4976606;28;20564;-64
2024/02/21 09:30:53;;;;;;;2.30;1.67;;;12.30;30.70;;;;;;4973142;28;20208;-65
2024/02/21 09:33:19;;;;;;;3.67;2.00;;;12.30;31.10;;;;;;4973253;28;20216;-64
2024/02/21 09:35:47;;;;;;;2.40;1.60;;;12.40;31.20;;;;;;4973364;28;20278;-65
2024/02/21 09:38:13;;;;;;;2.73;1.40;;;12.70;31.20;;;;;;4972845;28;20242;-64
2024/02/21 09:40:42;;;;;;;1.60;1.50;;;12.90;30.30;;;;;;4972369;28;20205;-64
2024/02/21 09:43:08;;;;;;;1.40;1.30;;;12.90;29.80;;;;;;4973264;28;20603;-65
2024/02/21 09:45:35;;;;;;;1.60;1.50;;;13.00;30.90;;;;;;4972918;28;20225;-64
2024/02/21 09:48:02;;;;;;;1.73;1.63;;;13.50;29.70;;;;;;4974222;28;20232;-65
2024/02/21 09:50:28;;;;;;;1.50;1.40;;;13.70;29.30;;;;;;4972133;28;20208;-65
2024/02/21 09:52:55;;;;;;;1.30;1.30;;;13.60;28.50;;;;;;4972886;28;20605;-64
2024/02/21 09:55:21;;;;;;;2.10;1.40;;;13.80;28.20;;;;;;4971371;28;20632;-64
2024/02/21 09:57:48;;;;;;;1.63;1.10;;;13.70;27.80;;;;;;4973080;28;20270;-65
2024/02/21 10:00:21;;;;;;;7.97;1.60;;;13.80;28.00;;;;;;4972964;28;20582;-65
2024/02/21 10:02:47;;;;;;;1.40;1.30;;;13.80;27.70;;;;;;4972851;28;20327;-65
2024/02/21 10:05:14;;;;;;;3.17;1.53;;;14.00;28.50;;;;;;4972538;28;20219;-65
2024/02/21 10:07:40;;;;;;;2.17;1.30;;;14.10;27.50;;;;;;4971556;28;20259;-64
2024/02/21 10:10:07;;;;;;;2.60;1.80;;;14.10;27.60;;;;;;4972116;28;20250;-65
2024/02/21 10:12:33;;;;;;;1.53;1.43;;;14.30;28.70;;;;;;4972921;28;20242;-65
2024/02/21 10:15:00;;;;;;;1.37;1.27;;;14.30;27.60;;;;;;4972286;28;20258;-65
2024/02/21 10:17:27;;;;;;;2.07;1.60;;;14.30;27.70;;;;;;4972703;28;20222;-65
2024/02/21 10:19:53;;;;;;;1.53;1.43;;;14.50;27.40;;;;;;4973067;28;20312;-65
2024/02/21 10:22:21;;;;;;;2.43;2.23;;;14.60;27.30;;;;;;4972189;28;20235;-65
2024/02/21 10:24:47;;;;;;;1.57;1.47;;;14.70;27.10;;;;;;4972755;28;20306;-65
2024/02/21 10:27:14;;;;;;;1.83;1.40;;;14.50;27.20;;;;;;4971624;28;20632;-65
2024/02/21 10:29:41;;;;;;;1.87;1.57;;;14.90;26.30;;;;;;4971797;28;20257;-65
2024/02/21 10:32:07;;;;;;;1.80;1.40;;;16.60;24.80;;;;;;4973235;28;20324;-65
2024/02/21 10:34:34;;;;;;;3.07;1.50;;;18.80;23.30;;;;;;4973483;28;20212;-65
2024/02/21 10:36:59;;;;;;;1.60;1.50;;;20.50;21.30;;;;;;4972888;28;20645;-65
2024/02/21 10:39:26;;;;;;;2.63;1.40;;;21.50;20.70;;;;;;4971675;28;20299;-66
2024/02/21 10:41:53;;;;;;;2.60;1.40;;;19.50;21.60;;;;;;4972979;28;20235;-65
2024/02/21 10:44:19;;;;;;;1.47;1.37;;;19.60;22.10;;;;;;4972411;28;20223;-65
2024/02/21 10:46:46;;;;;;;1.57;1.47;;;20.90;20.80;;;;;;4971513;28;20221;-65
2024/02/21 10:49:13;;;;;;;1.10;1.00;;;21.80;19.70;;;;;;4971974;28;20207;-65
2024/02/21 10:51:39;;;;;;;1.73;1.20;;;21.30;19.60;;;;;;4975379;28;20234;-65
2024/02/21 10:54:06;;;;;;;1.63;1.30;;;21.80;19.50;;;;;;4965938;28;20561;-65
2024/02/21 10:56:35;;;;;;;1.67;1.20;;;21.30;19.70;;;;;;4972604;28;20711;-65
2024/02/21 10:59:01;;;;;;;1.20;1.10;;;20.30;20.30;;;;;;4964655;28;20228;-65
2024/02/21 11:01:29;;;;;;;1.27;1.17;;;19.40;21.40;;;;;;4971191;28;20228;-65
2024/02/21 11:03:56;;;;;;;1.83;1.27;;;18.70;22.80;;;;;;4972394;28;20252;-65
2024/02/21 11:06:22;;;;;;;1.73;1.30;;;18.30;22.90;;;;;;4972729;28;20216;-65
2024/02/21 11:08:49;;;;;;;1.38;1.00;;;18.00;22.00;;;;;;4973911;28;20212;-65
2024/02/21 11:11:18;;;;;;;1.20;1.10;;;17.50;22.70;;;;;;4972397;28;20236;-65
2024/02/21 11:13:45;;;;;;;1.20;1.10;;;17.00;22.50;;;;;;4972462;28;20213;-65
2024/02/21 11:16:12;;;;;;;1.37;1.10;;;17.00;22.60;;;;;;4972522;28;20215;-65
2024/02/21 11:18:38;;;;;;;1.35;1.00;;;17.30;22.30;;;;;;4970983;28;20255;-65
2024/02/21 11:21:05;;;;;;;1.20;1.10;;;17.80;21.50;;;;;;4972388;28;20219;-65
2024/02/21 11:23:32;;;;;;;1.08;0.98;;;18.00;21.60;;;;;;4972791;28;20770;-65
2024/02/21 11:25:58;;;;;;;1.45;1.08;;;18.20;21.90;;;;;;4972571;28;20643;-65
2024/02/21 11:28:25;;;;;;;1.17;0.90;;;18.50;21.80;;;;;;4970996;28;20205;-65
2024/02/21 11:30:51;;;;;;;0.80;0.80;;;17.30;20.20;;;;;;4971213;28;20251;-65
2024/02/21 11:33:18;;;;;;;1.88;1.08;;;17.50;20.80;;;;;;4972190;28;20212;-65
2024/02/21 11:35:46;;;;;;;0.90;0.90;;;17.80;20.30;;;;;;4971984;28;20290;-65
2024/02/21 11:38:15;;;;;;;1.42;1.33;;;17.70;18.80;;;;;;4970866;28;20391;-65
2024/02/21 11:40:42;;;;;;;1.80;0.90;;;17.60;19.90;;;;;;4975351;28;20263;-65
2024/02/21 11:43:08;;;;;;;1.23;1.13;;;17.20;19.50;;;;;;4975580;28;20237;-65
2024/02/21 11:45:35;;;;;;;1.42;0.90;;;16.80;20.30;;;;;;4974412;28;20240;-65
2024/02/21 11:48:03;;;;;;;1.00;1.00;;;16.80;20.40;;;;;;4975437;28;20211;-65
2024/02/21 11:50:29;;;;;;;2.10;1.80;;;16.70;20.10;;;;;;4974740;28;20207;-65
2024/02/21 11:52:56;;;;;;;9.73;4.93;;;16.40;20.80;;;;;;4974739;28;20752;-65
2024/02/21 11:55:22;;;;;;;1.43;1.20;;;16.40;20.50;;;;;;4975105;28;20255;-65
2024/02/21 11:57:49;;;;;;;1.00;1.00;;;16.70;20.30;;;;;;4974663;28;20292;-65
2024/02/21 12:00:16;;;;;;;1.20;0.98;;;16.80;20.50;;;;;;4979362;28;20287;-65
2024/02/21 12:02:42;;;;;;;1.38;0.82;;;17.30;20.30;;;;;;4974202;28;20235;-65
2024/02/21 12:05:09;;;;;;;1.02;1.00;;;18.00;18.30;;;;;;4975228;28;20610;-65
2024/02/21 12:07:35;;;;;;;0.77;0.77;;;19.00;18.20;;;;;;4975327;28;20271;-65
2024/02/21 12:10:02;;;;;;;0.82;0.82;;;18.80;18.50;;;;;;4974948;28;20204;-65
2024/02/21 12:12:29;;;;;;;1.50;0.90;;;19.90;18.10;;;;;;4973907;28;20710;-65
2024/02/21 12:14:56;;;;;;;1.60;1.00;;;21.30;16.30;;;;;;4975644;28;20204;-65
2024/02/21 12:17:23;;;;;;;1.67;0.80;;;22.10;15.50;;;;;;4978775;28;20699;-64
2024/02/21 12:19:49;;;;;;;1.35;0.90;;;22.00;15.50;;;;;;4975182;28;20232;-64
2024/02/21 12:22:16;;;;;;;1.95;0.90;;;22.00;15.50;;;;;;4973887;28;20660;-64
2024/02/21 12:24:47;;;;;;;1.08;0.90;;;22.50;15.80;;;;;;4974415;28;20448;-64
2024/02/21 12:27:13;;;;;;;3.60;1.38;;;23.00;14.00;;;;;;4974534;28;20211;-64
2024/02/21 12:29:40;;;;;;;0.73;0.70;;;23.00;13.80;;;;;;4974957;28;20208;-64
2024/02/21 12:32:06;;;;;;;0.73;0.70;;;23.00;14.60;;;;;;4973726;28;20229;-64
2024/02/21 12:34:33;;;;;;;2.17;0.70;;;23.90;14.00;;;;;;4978465;28;20243;-64
2024/02/21 12:36:59;;;;;;;2.03;0.70;;;23.60;13.70;;;;;;4974310;28;20208;-64
2024/02/21 12:39:27;;;;;;;1.38;0.70;;;23.20;12.90;;;;;;4974465;28;20235;-64
2024/02/21 12:41:54;;;;;;;0.77;0.60;;;23.10;13.10;;;;;;4973874;28;21590;-64
2024/02/21 12:44:20;;;;;;;0.52;0.52;;;22.20;13.20;;;;;;4974160;28;20259;-64
2024/02/21 12:46:51;;;;;;;0.93;0.63;;;21.70;13.70;;;;;;4974135;28;20216;-64
2024/02/21 12:49:18;;;;;;;0.60;0.60;;;20.70;14.60;;;;;;4974227;28;20212;-64